Christmas Island Airport
YPXM : now visible

Airfield :











YOU CAN JOIN US ON...

 
LOGIN :

Register | Disclaimer

   EN    FR    IT 

 









Legend :    VFR   Marginal VFR   IFR   Intensive IFR   Very Intensive IFR
Visi :
Ceiling :
>= 8 km
>= 3000ft
5 to 8 km
1000 to 3000 ft
1500m to 5 km
500 to 1000 ft
800 to 1500m
200 to 500 ft
< 800m
< 200 ft
Symbols :   Thunderstorms  Fog  Heavy snow  Heavy precipitations  Wind > 20 kt






- Airport Elevation : 916 ft
- IATA code : XCH


YPXM - Christmas Island

CURRENT METAR :
  • 032130Z AUTO 13011KT 9999 // OVC005 25/24 Q1009 RF00.0/004.6

EXPIRED METARs :
  • 032100Z AUTO 13010KT 9999 // OVC006 25/24 Q1009 RF00.0/004.6
  • 032030Z AUTO 13011KT 9999 // OVC005 OVC013 25/24 Q1009
  • 032000Z AUTO 12011KT 9999 // OVC005 25/24 Q1009 RF00.0/004.6
  • 031930Z AUTO 13009KT 9999 // BKN005 OVC009 OVC013 25/24 Q1009
  • 031900Z AUTO 13010KT 9999 // OVC009 25/24 Q1010 RF00.0/004.6

TAF AMD TAF YPXM
Valid from the 03 at 17:00 until the 04 at 18:00 UTC


031708Z 0317/0418 13014KT 9999 BKN006
FM040200 13012KT 9999 BKN010
FM041000 13010KT 9999 BKN006 INTER 0317/0401 3000 SHRA BKN003
TEMPO 0401/0406 1500 SHRA BKN003 SCT015TCU INTER 0406/0418 3000 SHRA BKN005
WIIF FIR / Asia



MET'MAP, your aeronautical weather chart ! - Copyright ORBIFLY December 2007 - Disclaimer

ORBIFLY MET'MAP TEAM :

Programming & Development : Alexandra Zaïnal
Original concept : Baudouin d'Aumeries
Technical & hardware support : Manuel Goepfert
Assistance : Marc-Olivier Méhu




SOURCES & CREDITS :

   NOAA       Earth
Advisory